Terminal Aerodrome Forecast
Issued by NWS Duluth, MN

Home | Current Version | Previous Version | Text Only | Print | Product List | Glossary On
Versions: 1 2 3 4 5 6 7 8 9 10 11 12 13 14 15 16 17 18
338
FTUS43 KDLH 240125 AAA
TAFDLH
TAF AMD
KDLH 240125Z 2401/2424 18011KT P6SM SCT035 BKN250
     FM240700 18005KT P6SM SCT017 BKN035
     FM241000 21005KT 2SM BR VCSH BKN008
     FM241500 24007KT P6SM SCT015 BKN250
     FM241700 27012G22KT P6SM BKN250=

USA.gov is the U.S. government's official web portal to all federal, state and local government web resources and services.